Boston, PA

2:42 PM EDT on October 21, 2014 (GMT -0400)
Rustytower Penntownship | Change Station
CLOSE
Current Station
Personal Weather Station
Location: Irwin, PA
Elevation: 1161 ft
Nearby Weather Stations

Elev 1161 ft 40.37 °N, 79.67 °W | Updated 3 seconds ago

Overcast
Overcast
53.7 °F
Feels Like 53.7 °F
N
2.0
Wind Variable Wind from NNW
Gusts 4.0 mph

Today
High -- | Low -- °F
--% Chance of Precip.
Yesterday
High -- | Low -- °F
Precip. -- in
7:36 AM 6:30 PM
Waning Crescent, 5% visible
Pressure 29.87 in
Visibility 10.0 miles
Clouds Mostly Cloudy 2400 ft
Mostly Cloudy 3000 ft
Overcast 5500 ft
Dew Point 48 °F
Humidity 81%
Rainfall 0.13 in
Snow Depth Not available.
UV 1 out of 12
Pollen .30 out of 12
Ozone Good
PM2.5 Good
Flu Activity Sporadic
SPECI KAGC 211810Z 34007KT 10SM BKN024 BKN030 OVC055 12/06 A2987 RMK AO2 T01220061

More Conditions Fewer Conditions

Pressure 29.87 in
Visibility 10.0 miles
Clouds Mostly Cloudy 2400 ft
Mostly Cloudy 3000 ft
Overcast 5500 ft
Dew Point 48 °F
Humidity 81%
Rainfall 0.13 in
Snow Depth Not available.
UV 1 out of 12
Pollen .30 out of 12
Ozone Good
PM2.5 Good
Flu Activity Sporadic
SPECI KAGC 211810Z 34007KT 10SM BKN024 BKN030 OVC055 12/06 A2987 RMK AO2 T01220061

More Conditions Fewer Conditions

10-Day Weather Forecast

Almanac

Astronomy

Oct. 21, 2014 Rise Set
Actual Time 7:36 AM EDT 6:30 PM EDT
Civil Twilight 7:08 AM EDT 6:58 PM EDT
Nautical Twilight 6:37 AM EDT 7:29 PM EDT
Astronomical Twilight 6:05 AM EDT 8:01 PM EDT
Moon 5:18 AM EDT 5:24 PM EDT
Length of Visible Light 11h 49m
Length of Day
10h 54m
Tomorrow will be 2m 29s shorter.
Waning Crescent, 5% of the Moon is Illuminated
Today
Waning Crescent
Oct 23
New
Oct 30
First Quarter
Nov 6
Full
Nov 14
Last Quarter

Today's Extremes

State Highs State Lows

Community

WunderPhotos

Upload Photos

1,763,742 photos uploaded!

Nearby

Air Quality

  Air Quality AQ Index Pollutant
Yesterday Moderate
PM2.5
Yesterday Good
OZONE
Current Good
PM2.5
Current Good
OZONE
Tuesday Good
PM2.5
Wednesday Good
PM2.5

Snow Depth

Station Depth Elevation
No new snow has been reported.

Earthquake Activity

City Distance Mag. Time & Date
No recent earthquake activity has been reported nearby.
Minimum magnitude displayed is 2.5.

Coastal Water Temperatures

Place Temperature
No Stations Reporting

Nearby Weather Stations